Time;durP1;ratioP1;P1;durP2;ratioP2;P2;SDS_P1;SDS_P2;PMS_P1;PMS_P2;Temp;Humidity;BMP_temperature;BMP_pressure;BME280_temperature;BME280_humidity;BME280_pressure;Samples;Min_cycle;Max_cycle;Signal;HPM_P1;HPM_P2
2023/08/15 00:01:05;;;;;;;20.70;8.43;;;;;;;24.35;66.57;100503.38;4180257;28;20230;-70
2023/08/15 00:03:32;;;;;;;19.90;8.57;;;;;;;24.45;66.16;100497.25;4199818;28;21581;-71
2023/08/15 00:05:59;;;;;;;12.10;8.13;;;;;;;24.47;66.12;100507.00;4200764;28;21285;-69
2023/08/15 00:08:25;;;;;;;14.97;8.03;;;;;;;24.47;65.77;100515.28;4189491;28;20707;-66
2023/08/15 00:10:52;;;;;;;15.80;8.17;;;;;;;24.42;66.22;100506.88;4199336;28;20236;-69
2023/08/15 00:13:18;;;;;;;13.30;7.77;;;;;;;24.45;65.99;100519.38;4191117;28;20265;-69
2023/08/15 00:15:45;;;;;;;11.07;7.97;;;;;;;24.30;66.31;100514.31;4206932;28;20244;-70
2023/08/15 00:18:11;;;;;;;10.83;7.27;;;;;;;24.36;65.72;100500.38;4201351;28;25861;-70
2023/08/15 00:20:38;;;;;;;14.87;7.47;;;;;;;24.31;65.84;100510.47;4192876;28;20314;-71
2023/08/15 00:23:04;;;;;;;12.63;7.93;;;;;;;24.51;65.29;100515.66;4192077;28;22143;-68
2023/08/15 00:25:31;;;;;;;14.70;6.90;;;;;;;24.48;64.97;100505.91;4197793;28;20310;-69
2023/08/15 00:27:58;;;;;;;9.50;6.93;;;;;;;24.49;64.95;100509.53;4189026;28;20264;-69
2023/08/15 00:30:24;;;;;;;14.10;7.43;;;;;;;24.52;65.01;100498.84;4188874;28;20303;-71
2023/08/15 00:32:51;;;;;;;12.90;7.30;;;;;;;24.44;65.09;100498.31;4192102;28;20301;-67
2023/08/15 00:35:17;;;;;;;11.03;6.63;;;;;;;24.51;64.67;100501.81;4192881;28;21683;-70
2023/08/15 00:37:44;;;;;;;16.15;7.30;;;;;;;24.64;64.44;100498.84;4178200;28;21236;-68
2023/08/15 00:40:11;;;;;;;12.17;7.33;;;;;;;24.61;64.36;100492.97;4191919;28;20240;-71
2023/08/15 00:42:37;;;;;;;12.47;6.70;;;;;;;24.50;64.57;100501.00;4194191;28;25463;-68
2023/08/15 00:45:04;;;;;;;11.67;7.47;;;;;;;24.64;64.36;100503.53;4187184;28;20431;-70
2023/08/15 00:47:31;;;;;;;12.77;6.93;;;;;;;24.58;64.22;100494.28;4185337;28;20240;-70
2023/08/15 00:49:58;;;;;;;11.70;6.93;;;;;;;24.64;64.37;100503.53;4195734;28;21402;-70
2023/08/15 00:52:25;;;;;;;11.70;7.30;;;;;;;24.57;64.73;100495.34;4192205;28;20239;-70
2023/08/15 00:54:52;;;;;;;13.23;7.83;;;;;;;24.42;65.36;100493.03;4193597;28;20411;-69
2023/08/15 00:57:19;;;;;;;13.33;7.73;;;;;;;24.29;65.87;100498.78;4177095;28;20321;-68
2023/08/15 00:59:46;;;;;;;15.73;8.00;;;;;;;24.33;65.70;100497.22;4192345;28;25565;-69
2023/08/15 01:02:13;;;;;;;18.75;7.70;;;;;;;24.20;66.45;100506.59;4190837;28;20312;-70
2023/08/15 01:04:40;;;;;;;13.57;7.93;;;;;;;23.96;67.63;100509.28;4198250;28;20801;-71
2023/08/15 01:07:08;;;;;;;15.43;8.10;;;;;;;24.01;67.33;100503.88;4199241;28;21732;-71
2023/08/15 01:09:36;;;;;;;13.37;8.10;;;;;;;23.91;67.67;100503.56;4201572;28;20347;-68
2023/08/15 01:12:29;;;;;;;12.63;7.63;;;;;;;23.79;67.99;100506.31;4194498;28;20507;-71
2023/08/15 01:15:02;;;;;;;13.47;8.00;;;;;;;23.80;68.08;100502.44;4211557;28;20310;-68
2023/08/15 01:17:42;;;;;;;15.80;8.50;;;;;;;23.90;67.89;100507.44;4207229;28;20233;-69
2023/08/15 01:20:13;;;;;;;14.07;8.00;;;;;;;23.73;68.33;100498.94;4181751;28;20230;-72
2023/08/15 01:22:44;;;;;;;16.57;8.40;;;;;;;23.63;68.77;100502.25;4194623;28;20232;-66
2023/08/15 01:25:10;;;;;;;12.73;7.73;;;;;;;23.63;68.59;100499.50;4197520;28;20233;-71
2023/08/15 01:27:37;;;;;;;15.60;8.17;;;;;;;23.57;68.59;100503.19;4194769;28;20305;-73
2023/08/15 01:30:05;;;;;;;11.57;7.63;;;;;;;23.76;68.06;100497.63;4227832;28;21736;-71
2023/08/15 01:32:50;;;;;;;14.60;7.53;;;;;;;23.74;68.23;100500.63;4208667;28;21925;-74
2023/08/15 01:35:25;;;;;;;13.70;8.23;;;;;;;23.70;68.41;100500.25;4222723;28;21591;-75
2023/08/15 01:37:54;;;;;;;13.00;7.97;;;;;;;23.70;68.10;100503.00;4188439;28;20921;-70
2023/08/15 01:40:22;;;;;;;15.17;7.90;;;;;;;23.58;68.45;100502.13;4200748;28;20525;-74
2023/08/15 01:42:49;;;;;;;14.73;8.00;;;;;;;23.58;68.80;100497.44;4213672;28;20239;-70
2023/08/15 01:45:16;;;;;;;13.43;9.17;;;;;;;23.48;69.36;100493.53;4197375;28;21536;-70
2023/08/15 01:47:43;;;;;;;15.17;8.13;;;;;;;23.45;69.34;100494.00;4195799;28;20315;-70
2023/08/15 01:50:10;;;;;;;15.60;7.93;;;;;;;23.32;69.67;100493.06;4185291;28;20226;-71
2023/08/15 01:52:36;;;;;;;11.88;8.48;;;;;;;23.25;70.15;100492.31;4170105;28;20238;-47
2023/08/15 01:55:03;;;;;;;12.70;8.17;;;;;;;23.25;70.06;100493.19;4195192;28;21051;-48
2023/08/15 01:57:30;;;;;;;13.70;8.27;;;;;;;23.24;70.15;100505.28;4198511;28;20374;-52
2023/08/15 01:59:56;;;;;;;12.60;7.37;;;;;;;23.48;69.05;100508.19;4191525;28;20232;-47
2023/08/15 02:02:23;;;;;;;12.77;7.33;;;;;;;23.45;69.03;100499.53;4195205;28;21132;-49
2023/08/15 02:04:49;;;;;;;11.63;7.83;;;;;;;23.34;69.56;100501.97;4202711;28;20239;-51
2023/08/15 02:07:16;;;;;;;11.50;7.63;;;;;;;23.37;69.89;100508.97;4192095;28;20238;-47
2023/08/15 02:09:42;;;;;;;15.98;8.85;;;;;;;23.27;69.98;100512.28;4192638;28;20661;-45
2023/08/15 02:12:09;;;;;;;13.15;8.75;;;;;;;23.22;70.29;100509.38;4204031;28;20514;-46
2023/08/15 02:14:35;;;;;;;13.57;8.70;;;;;;;23.32;70.15;100506.88;4201680;28;20225;-49
2023/08/15 02:17:02;;;;;;;11.93;8.30;;;;;;;23.31;70.15;100507.97;4190525;28;20859;-49
2023/08/15 02:19:29;;;;;;;17.97;8.47;;;;;;;23.23;70.50;100508.25;4197439;28;20286;-49
2023/08/15 02:21:55;;;;;;;13.98;8.35;;;;;;;23.14;70.69;100512.41;4196210;28;20407;-48
2023/08/15 02:24:22;;;;;;;13.27;8.07;;;;;;;23.11;71.11;100510.94;4201435;28;20280;-53
2023/08/15 02:26:48;;;;;;;14.90;8.63;;;;;;;23.17;70.64;100517.44;4186322;28;20348;-47
2023/08/15 02:29:15;;;;;;;12.83;8.80;;;;;;;23.19;70.58;100512.56;4192344;28;20230;-50
2023/08/15 02:31:46;;;;;;;19.63;8.63;;;;;;;23.02;71.43;100506.78;4190501;28;20236;-54
2023/08/15 02:34:16;;;;;;;15.57;8.73;;;;;;;22.99;71.83;100516.38;4200737;28;21185;-47
2023/08/15 02:36:46;;;;;;;13.57;8.50;;;;;;;22.97;71.90;100515.75;4198158;28;22662;-50
2023/08/15 02:39:14;;;;;;;15.67;8.63;;;;;;;22.79;72.26;100514.63;4191545;28;23694;-49
2023/08/15 02:41:42;;;;;;;14.33;8.40;;;;;;;22.87;72.14;100516.28;4202655;28;22233;-50
2023/08/15 02:44:08;;;;;;;18.30;9.03;;;;;;;22.76;72.71;100514.25;4198079;28;22698;-53
2023/08/15 02:46:35;;;;;;;13.80;8.60;;;;;;;22.73;72.72;100521.06;4190823;28;20292;-50
2023/08/15 02:49:02;;;;;;;14.23;9.10;;;;;;;22.78;72.55;100512.94;4196609;28;20241;-51
2023/08/15 02:51:28;;;;;;;14.67;9.83;;;;;;;22.74;73.07;100516.38;4213095;28;20274;-50
2023/08/15 02:53:55;;;;;;;16.47;9.20;;;;;;;22.69;72.86;100522.59;4200894;28;22982;-46
2023/08/15 02:56:21;;;;;;;12.73;9.07;;;;;;;22.56;73.66;100515.28;4192722;28;21242;-53
2023/08/15 02:58:48;;;;;;;11.57;8.77;;;;;;;22.50;74.24;100518.94;4193516;28;20241;-49
2023/08/15 03:01:15;;;;;;;15.53;9.70;;;;;;;22.45;74.48;100522.38;4205112;28;20261;-46
2023/08/15 03:03:41;;;;;;;14.07;9.43;;;;;;;22.42;74.76;100522.81;4196685;28;20314;-54
2023/08/15 03:06:08;;;;;;;15.17;9.70;;;;;;;22.47;74.34;100514.69;4184087;28;20292;-47
2023/08/15 03:08:35;;;;;;;17.77;9.53;;;;;;;22.41;74.26;100525.78;4194164;28;20391;-50
2023/08/15 03:11:01;;;;;;;14.03;8.43;;;;;;;22.25;75.05;100516.97;4199198;28;21503;-51
2023/08/15 03:13:28;;;;;;;13.10;9.73;;;;;;;22.34;75.03;100524.97;4196502;28;20230;-44
2023/08/15 03:15:56;;;;;;;14.10;9.60;;;;;;;22.36;74.84;100520.91;4192678;28;20324;-45
2023/08/15 03:18:23;;;;;;;18.53;9.73;;;;;;;22.30;74.90;100522.66;4196404;28;21117;-50
2023/08/15 03:21:02;;;;;;;18.37;9.00;;;;;;;22.40;74.55;100526.84;4204381;28;20238;-47
2023/08/15 03:23:29;;;;;;;20.33;10.20;;;;;;;22.19;75.71;100523.38;4191927;28;20240;-46
2023/08/15 03:26:03;;;;;;;16.87;8.63;;;;;;;22.23;75.41;100532.03;4195722;28;20295;-44
2023/08/15 03:28:30;;;;;;;15.87;9.97;;;;;;;22.41;74.80;100532.13;4195260;28;20932;-52
2023/08/15 03:30:57;;;;;;;15.70;10.43;;;;;;;22.38;74.93;100540.00;4204163;28;20464;-48
2023/08/15 03:33:24;;;;;;;17.67;10.20;;;;;;;22.47;74.48;100536.75;4196371;28;20252;-47
2023/08/15 03:35:51;;;;;;;16.33;10.00;;;;;;;22.43;74.44;100538.28;4201532;28;20271;-46
2023/08/15 03:38:19;;;;;;;17.00;9.47;;;;;;;22.28;75.00;100546.84;4203884;28;20375;-47
2023/08/15 03:40:49;;;;;;;16.37;10.40;;;;;;;22.11;76.13;100541.00;4195501;28;21689;-47
2023/08/15 03:43:15;;;;;;;16.20;9.90;;;;;;;22.29;75.37;100544.94;4201823;28;20879;-46
2023/08/15 03:45:42;;;;;;;17.67;10.07;;;;;;;22.40;74.84;100546.16;4204335;28;20806;-50
2023/08/15 03:48:09;;;;;;;13.43;9.43;;;;;;;22.44;74.63;100551.00;4209119;28;20422;-48
2023/08/15 03:50:37;;;;;;;14.20;9.90;;;;;;;22.27;75.32;100547.94;4198461;28;20311;-49
2023/08/15 03:53:04;;;;;;;15.20;9.17;;;;;;;22.33;74.91;100543.41;4201109;28;20243;-50
2023/08/15 03:55:31;;;;;;;23.10;10.23;;;;;;;22.29;74.96;100540.25;4194745;28;22321;-47
2023/08/15 06:15:14;;;;;;;15.20;7.75;;;;;;;27.45;56.96;100578.88;4233850;27;20594;-68
2023/08/15 06:17:41;;;;;;;13.65;7.60;;;;;;;29.21;51.12;100585.19;4213811;28;20252;-67
2023/08/15 06:20:10;;;;;;;10.70;6.57;;;;;;;30.36;47.70;100590.16;4187650;28;22067;-69
2023/08/15 06:22:36;;;;;;;11.45;6.15;;;;;;;30.92;45.87;100591.31;4215686;28;20288;-70
2023/08/15 06:25:03;;;;;;;8.93;6.35;;;;;;;32.33;42.55;100583.06;4200023;28;20243;-69
2023/08/15 06:27:30;;;;;;;11.23;6.30;;;;;;;32.73;41.52;100585.84;4191993;28;21446;-71
2023/08/15 06:29:57;;;;;;;11.70;6.15;;;;;;;32.96;40.89;100591.84;4189785;28;20489;-72
2023/08/15 06:32:27;;;;;;;12.48;6.20;;;;;;;33.30;39.78;100590.94;4211270;28;20840;-71
2023/08/15 06:34:54;;;;;;;9.48;5.60;;;;;;;33.59;39.66;100590.06;4218252;28;20383;-69
2023/08/15 06:37:21;;;;;;;12.10;5.85;;;;;;;34.87;36.80;100600.63;4197054;28;20687;-68
2023/08/15 06:39:49;;;;;;;8.93;5.60;;;;;;;35.25;35.69;100594.09;4225372;28;25203;-66
2023/08/15 06:42:15;;;;;;;8.73;5.82;;;;;;;34.87;36.74;100609.06;4233927;28;21090;-53
2023/08/15 06:44:43;;;;;;;11.27;6.20;;;;;;;35.60;35.27;100601.03;4219108;28;21162;-68
2023/08/15 06:47:10;;;;;;;8.63;5.60;;;;;;;36.80;33.58;100594.38;4191380;28;20544;-68
2023/08/15 06:49:37;;;;;;;12.55;5.70;;;;;;;37.43;32.50;100591.59;4223665;28;22485;-69
2023/08/15 06:52:04;;;;;;;9.27;5.20;;;;;;;38.31;31.08;100595.50;4209707;28;20294;-71
2023/08/15 06:54:30;;;;;;;10.25;5.43;;;;;;;38.05;30.96;100599.13;4222507;28;22823;-71
2023/08/15 06:56:57;;;;;;;9.30;5.60;;;;;;;38.74;29.74;100596.66;4194240;28;20248;-70
2023/08/15 06:59:24;;;;;;;9.60;5.03;;;;;;;39.53;27.97;100604.13;4201899;28;20487;-70
2023/08/15 07:01:53;;;;;;;8.48;5.13;;;;;;;39.56;26.99;100604.28;4196040;28;20240;-68
2023/08/15 07:04:20;;;;;;;5.90;4.13;;;;;;;40.37;26.13;100600.63;4186305;28;21631;-67
2023/08/15 07:06:47;;;;;;;10.65;4.70;;;;;;;41.00;25.10;100611.06;4218203;28;21115;-67
2023/08/15 07:09:14;;;;;;;9.52;4.60;;;;;;;40.85;25.85;100606.88;4189321;28;20241;-68
2023/08/15 07:11:40;;;;;;;9.90;4.82;;;;;;;41.50;24.13;100604.31;4192693;28;20239;-70
2023/08/15 07:14:07;;;;;;;7.80;4.00;;;;;;;40.84;23.86;100608.03;4220395;28;21109;-72
2023/08/15 07:16:35;;;;;;;11.05;3.92;;;;;;;42.96;21.89;100616.09;4214974;28;25317;-66
2023/08/15 07:19:04;;;;;;;10.73;4.28;;;;;;;43.25;21.84;100616.03;4191580;28;20240;-68
2023/08/15 07:21:30;;;;;;;7.10;4.45;;;;;;;42.84;22.29;100608.44;4191763;28;21324;-69
2023/08/15 07:23:57;;;;;;;6.80;4.43;;;;;;;41.55;23.77;100611.78;4212108;28;20661;-68
2023/08/15 07:26:24;;;;;;;8.20;4.82;;;;;;;42.57;23.00;100607.25;4211130;28;20304;-71
2023/08/15 07:28:50;;;;;;;5.05;3.65;;;;;;;43.68;20.77;100612.28;4198182;28;23594;-69
2023/08/15 07:31:17;;;;;;;10.43;3.72;;;;;;;43.63;20.16;100614.56;4184774;28;21162;-67
2023/08/15 07:33:44;;;;;;;7.85;3.60;;;;;;;43.81;20.45;100612.19;4214610;28;20239;-70
2023/08/15 07:36:10;;;;;;;12.65;3.90;;;;;;;43.28;21.27;100604.75;4207322;28;20241;-69
2023/08/15 07:38:37;;;;;;;9.57;4.40;;;;;;;41.90;22.50;100604.81;4187813;28;22170;-68
2023/08/15 07:41:03;;;;;;;5.80;4.10;;;;;;;41.61;22.82;100606.69;4183864;28;20244;-68
2023/08/15 07:43:30;;;;;;;10.55;4.10;;;;;;;41.52;22.84;100606.78;4175754;28;20232;-70
2023/08/15 07:45:56;;;;;;;11.57;4.25;;;;;;;42.58;22.99;100603.22;4173339;28;20725;-69
2023/08/15 07:48:23;;;;;;;6.70;3.53;;;;;;;42.85;21.24;100606.41;4175854;28;20297;-70
2023/08/15 07:50:50;;;;;;;5.85;4.00;;;;;;;41.58;22.13;100610.22;4183354;28;23420;-72
2023/08/15 07:53:17;;;;;;;6.40;3.78;;;;;;;41.96;22.10;100612.72;4213369;28;21851;-67
2023/08/15 07:55:43;;;;;;;9.13;4.35;;;;;;;41.13;22.68;100600.59;4210721;28;20362;-68
2023/08/15 07:58:10;;;;;;;7.30;4.28;;;;;;;39.26;25.80;100603.38;4208521;28;21798;-68
2023/08/15 08:00:37;;;;;;;10.63;4.10;;;;;;;38.13;27.66;100603.13;4202199;28;20236;-72
2023/08/15 08:03:04;;;;;;;9.25;3.83;;;;;;;38.95;25.79;100605.31;4216593;28;22034;-72
2023/08/15 08:05:30;;;;;;;8.40;3.95;;;;;;;38.88;24.89;100596.50;4197785;28;20909;-70
2023/08/15 08:08:00;;;;;;;6.22;3.88;;;;;;;38.46;25.83;100597.00;4188487;28;20400;-71
2023/08/15 08:10:27;;;;;;;7.82;4.18;;;;;;;37.68;26.48;100592.03;4237448;28;20237;-71
2023/08/15 08:12:54;;;;;;;10.20;3.63;;;;;;;37.25;26.34;100587.84;4210587;28;20630;-73
2023/08/15 08:15:23;;;;;;;9.45;3.78;;;;;;;36.20;28.22;100589.88;4182439;28;20243;-72
2023/08/15 08:17:50;;;;;;;9.07;3.60;;;;;;;35.82;30.08;100582.53;4213421;28;21866;-75
2023/08/15 08:20:17;;;;;;;7.53;3.45;;;;;;;35.47;30.02;100597.06;4223192;28;20410;-74
2023/08/15 08:22:44;;;;;;;13.70;5.22;;;;;;;35.84;29.46;100597.97;4209364;28;25627;-81
2023/08/15 08:25:14;;;;;;;9.65;4.32;;;;;;;36.07;28.48;100591.63;4188031;28;21766;-69
2023/08/15 08:27:41;;;;;;;8.05;3.80;;;;;;;36.33;27.30;100595.50;4187854;28;20225;-70
2023/08/15 08:30:09;;;;;;;5.47;3.55;;;;;;;36.60;27.16;100599.38;4215893;28;25749;-73
2023/08/15 08:32:36;;;;;;;4.85;3.42;;;;;;;36.50;27.55;100588.38;4199989;28;20708;-73
2023/08/15 08:35:04;;;;;;;8.35;3.80;;;;;;;36.51;27.71;100584.41;4181763;28;20237;-73
2023/08/15 08:37:30;;;;;;;9.23;3.67;;;;;;;36.22;28.26;100587.59;4173726;28;20242;-75
2023/08/15 08:39:57;;;;;;;6.45;3.40;;;;;;;36.07;28.63;100588.78;4208477;28;21393;-75
2023/08/15 08:42:24;;;;;;;7.57;3.70;;;;;;;36.48;27.32;100580.19;4232494;28;20295;-70
2023/08/15 08:44:51;;;;;;;5.18;3.33;;;;;;;36.63;27.24;100575.38;4204363;28;20337;-69
2023/08/15 08:47:19;;;;;;;8.95;3.63;;;;;;;35.88;28.61;100572.00;4194606;28;20648;-74
2023/08/15 08:49:47;;;;;;;10.80;3.40;;;;;;;36.15;27.95;100571.09;4206711;28;20324;-73
2023/08/15 08:52:15;;;;;;;8.48;3.50;;;;;;;36.06;27.97;100558.94;4188826;28;21837;-74
2023/08/15 08:54:42;;;;;;;4.28;3.45;;;;;;;36.04;27.71;100559.25;4206454;28;20236;-72
2023/08/15 08:57:12;;;;;;;6.03;3.75;;;;;;;35.66;29.20;100563.16;4205560;28;21509;-73
2023/08/15 08:59:41;;;;;;;11.23;3.95;;;;;;;35.22;30.32;100558.97;4201999;28;24799;-73
2023/08/15 09:02:11;;;;;;;7.35;3.83;;;;;;;35.67;29.88;100547.94;4165650;28;20613;-74
2023/08/15 09:04:38;;;;;;;5.35;3.75;;;;;;;35.46;30.60;100555.16;4162534;28;21768;-77
2023/08/15 09:07:05;;;;;;;5.15;3.85;;;;;;;35.35;30.83;100558.13;4186999;28;21001;-72
2023/08/15 09:09:31;;;;;;;10.73;4.28;;;;;;;35.24;31.68;100565.09;4189601;28;20238;-74
2023/08/15 09:11:58;;;;;;;6.78;3.78;;;;;;;35.01;32.33;100564.13;4186576;28;20319;-74
2023/08/15 09:14:24;;;;;;;11.68;4.95;;;;;;;34.42;33.05;100548.50;4212699;28;20710;-72
2023/08/15 09:16:51;;;;;;;10.25;4.20;;;;;;;33.96;33.40;100554.81;4210957;28;20295;-76
2023/08/15 09:19:18;;;;;;;12.23;4.05;;;;;;;34.35;32.23;100556.47;4230697;28;21176;-73
2023/08/15 09:21:45;;;;;;;10.27;4.30;;;;;;;34.60;32.25;100551.63;4189202;28;20236;-74
2023/08/15 09:24:12;;;;;;;9.60;4.40;;;;;;;34.40;32.90;100556.44;4206689;28;22381;-74
2023/08/15 09:26:39;;;;;;;13.00;4.82;;;;;;;34.12;33.97;100550.63;4193444;28;21698;-71
2023/08/15 09:29:06;;;;;;;5.28;3.95;;;;;;;34.05;33.66;100543.75;4225008;28;21809;-74
2023/08/15 09:31:33;;;;;;;8.95;4.10;;;;;;;34.26;32.75;100542.28;4235593;28;20436;-75
2023/08/15 09:34:09;;;;;;;8.38;4.20;;;;;;;34.23;33.22;100544.88;4190439;28;22305;-76
2023/08/15 09:36:36;;;;;;;7.45;4.28;;;;;;;33.71;34.45;100539.13;4188703;28;22584;-74
2023/08/15 09:39:06;;;;;;;6.30;4.30;;;;;;;33.71;34.91;100544.72;4188213;28;20997;-72
2023/08/15 09:41:32;;;;;;;7.45;4.13;;;;;;;33.89;33.64;100543.97;4197227;28;22144;-73
2023/08/15 09:44:02;;;;;;;7.35;3.97;;;;;;;33.65;34.35;100538.38;4224406;28;20245;-74
2023/08/15 09:46:29;;;;;;;9.27;4.30;;;;;;;33.33;34.66;100543.50;4209757;28;21575;-72
2023/08/15 09:48:56;;;;;;;9.40;4.18;;;;;;;33.42;35.26;100535.28;4182099;28;20383;-74
2023/08/15 09:51:23;;;;;;;10.75;4.10;;;;;;;33.16;35.91;100535.53;4214551;28;25709;-73
2023/08/15 09:53:52;;;;;;;5.18;3.70;;;;;;;33.58;34.65;100538.72;4190563;28;20634;-73
2023/08/15 09:56:20;;;;;;;14.32;3.97;;;;;;;33.31;35.13;100537.34;4208025;28;21716;-77
2023/08/15 09:58:46;;;;;;;12.27;3.88;;;;;;;33.41;34.02;100539.22;4215543;28;20239;-70
2023/08/15 10:01:15;;;;;;;7.28;3.80;;;;;;;33.38;34.52;100541.78;4212470;28;20800;-75
2023/08/15 10:03:43;;;;;;;5.20;3.63;;;;;;;33.47;34.26;100535.22;4172478;28;20246;-74
2023/08/15 10:06:10;;;;;;;9.30;3.67;;;;;;;33.50;34.24;100542.19;4202901;28;20225;-70
2023/08/15 10:08:40;;;;;;;6.70;3.65;;;;;;;33.29;35.08;100539.63;4206553;28;20304;-72
2023/08/15 10:11:09;;;;;;;8.45;3.63;;;;;;;33.32;34.87;100529.78;4211686;28;20256;-72
2023/08/15 10:13:37;;;;;;;5.00;3.20;;;;;;;33.14;34.86;100526.59;4191566;28;20244;-70
2023/08/15 10:16:05;;;;;;;8.57;3.47;;;;;;;33.03;35.12;100533.44;4204345;28;20252;-71
2023/08/15 10:18:32;;;;;;;9.13;3.58;;;;;;;33.42;34.21;100534.44;4220187;28;20232;-73
2023/08/15 10:21:00;;;;;;;7.70;3.80;;;;;;;33.25;34.34;100521.69;4202087;28;20313;-72
2023/08/15 10:23:33;;;;;;;7.78;3.28;;;;;;;33.11;33.25;100526.34;4178307;28;20294;-75
2023/08/15 10:26:01;;;;;;;7.95;3.78;;;;;;;33.23;33.54;100518.38;4223944;28;22134;-71
2023/08/15 10:28:29;;;;;;;7.30;3.42;;;;;;;33.21;33.73;100514.16;4211469;28;20545;-75
2023/08/15 10:30:56;;;;;;;5.68;3.38;;;;;;;33.09;34.15;100520.19;4199476;28;20276;-73
2023/08/15 10:33:28;;;;;;;7.22;3.55;;;;;;;33.06;35.89;100512.38;4171520;28;20370;-73
2023/08/15 10:35:55;;;;;;;7.68;3.50;;;;;;;33.02;35.02;100518.56;4174868;28;22045;-72
2023/08/15 10:38:23;;;;;;;6.20;3.30;;;;;;;33.32;34.60;100515.75;4180763;28;20304;-73
2023/08/15 10:40:51;;;;;;;8.63;3.30;;;;;;;33.31;34.28;100514.91;4182250;28;20241;-74
2023/08/15 10:43:18;;;;;;;7.30;3.60;;;;;;;33.54;34.07;100519.97;4163175;28;20749;-74
2023/08/15 10:45:59;;;;;;;8.07;4.18;;;;;;;33.38;34.37;100516.53;4193790;28;20233;-73
2023/08/15 10:48:49;;;;;;;7.82;3.58;;;;;;;33.52;34.23;100519.44;4161130;28;20234;-73
2023/08/15 10:51:27;;;;;;;6.63;3.50;;;;;;;33.29;34.60;100519.97;4219266;28;20284;-79
2023/08/15 10:53:57;;;;;;;7.75;3.75;;;;;;;33.42;34.31;100506.38;4228849;28;20593;-76
2023/08/15 10:56:26;;;;;;;10.30;3.65;;;;;;;33.26;33.12;100498.13;4186079;28;20246;-75
2023/08/15 10:58:52;;;;;;;7.93;3.22;;;;;;;33.18;32.98;100504.38;4188854;28;20256;-76
2023/08/15 11:01:24;;;;;;;6.82;3.35;;;;;;;33.49;32.37;100518.91;4205472;28;20247;-76
2023/08/15 11:03:52;;;;;;;7.93;3.05;;;;;;;33.74;30.36;100519.69;4205166;28;20231;-75
2023/08/15 11:06:19;;;;;;;7.15;3.40;;;;;;;33.68;30.96;100523.72;4172933;28;20327;-75
2023/08/15 11:08:48;;;;;;;6.55;3.28;;;;;;;33.73;31.30;100518.03;4195712;28;22604;-77
2023/08/15 11:11:16;;;;;;;6.45;3.40;;;;;;;33.58;31.65;100507.84;4210011;28;22012;-75
2023/08/15 11:13:47;;;;;;;9.63;3.63;;;;;;;34.00;31.18;100507.28;4204090;28;20236;-76
2023/08/15 11:16:18;;;;;;;7.97;3.38;;;;;;;34.11;31.07;100509.63;4210132;28;21932;-73
2023/08/15 11:18:46;;;;;;;8.35;3.45;;;;;;;33.97;31.09;100508.72;4196656;28;20655;-72
2023/08/15 11:21:14;;;;;;;6.38;3.55;;;;;;;33.84;30.86;100512.28;4184374;28;25009;-71
2023/08/15 11:23:41;;;;;;;7.15;3.33;;;;;;;34.00;29.65;100513.75;4189058;28;20384;-74
2023/08/15 11:26:09;;;;;;;8.55;3.58;;;;;;;34.16;29.85;100517.16;4179605;28;21450;-74
2023/08/15 11:28:37;;;;;;;5.70;3.13;;;;;;;34.07;28.45;100510.53;4185013;28;20397;-72
2023/08/15 11:31:11;;;;;;;6.15;2.55;;;;;;;34.02;28.17;100511.47;4184122;28;20240;-74
2023/08/15 11:33:50;;;;;;;4.68;2.60;;;;;;;34.11;27.79;100509.63;4180763;28;22970;-73
2023/08/15 11:36:17;;;;;;;6.28;2.78;;;;;;;34.10;27.29;100513.56;4175591;28;21111;-73
2023/08/15 11:38:43;;;;;;;8.82;2.90;;;;;;;34.05;27.34;100505.25;4197364;28;23356;-73
2023/08/15 11:41:10;;;;;;;5.88;3.08;;;;;;;34.05;27.55;100510.03;4186926;28;20237;-73
